sensor_id;sensor_type;location;lat;lon;timestamp;temperature;humidity
47310;DHT22;33046;52.270;6.832;2022-07-29T00:01:20;21.10;62.50
47310;DHT22;33046;52.270;6.832;2022-07-29T00:03:27;21.10;62.80
47310;DHT22;33046;52.270;6.832;2022-07-29T00:05:33;21.10;62.80
47310;DHT22;33046;52.270;6.832;2022-07-29T00:07:40;21.10;62.60
47310;DHT22;33046;52.270;6.832;2022-07-29T00:09:48;21.00;62.80
47310;DHT22;33046;52.270;6.832;2022-07-29T00:11:59;21.00;63.00
47310;DHT22;33046;52.270;6.832;2022-07-29T00:14:06;21.00;62.70
47310;DHT22;33046;52.270;6.832;2022-07-29T00:16:13;21.10;62.60
47310;DHT22;33046;52.270;6.832;2022-07-29T00:18:19;21.00;62.40
47310;DHT22;33046;52.270;6.832;2022-07-29T00:20:26;21.00;62.80
47310;DHT22;33046;52.270;6.832;2022-07-29T00:22:37;21.00;62.60
47310;DHT22;33046;52.270;6.832;2022-07-29T00:24:43;21.00;62.50
47310;DHT22;33046;52.270;6.832;2022-07-29T00:26:52;21.00;62.30
47310;DHT22;33046;52.270;6.832;2022-07-29T00:28:59;21.00;62.60
47310;DHT22;33046;52.270;6.832;2022-07-29T00:31:23;20.90;62.40
47310;DHT22;33046;52.270;6.832;2022-07-29T00:33:29;20.90;62.50
47310;DHT22;33046;52.270;6.832;2022-07-29T00:35:36;20.90;62.80
47310;DHT22;33046;52.270;6.832;2022-07-29T00:37:43;20.90;62.70
47310;DHT22;33046;52.270;6.832;2022-07-29T00:39:50;20.90;62.30
47310;DHT22;33046;52.270;6.832;2022-07-29T00:41:58;20.90;62.40
47310;DHT22;33046;52.270;6.832;2022-07-29T00:44:08;20.80;62.60
47310;DHT22;33046;52.270;6.832;2022-07-29T00:46:15;20.80;62.70
47310;DHT22;33046;52.270;6.832;2022-07-29T00:48:21;20.80;62.90
47310;DHT22;33046;52.270;6.832;2022-07-29T00:50:29;20.80;62.60
47310;DHT22;33046;52.270;6.832;2022-07-29T00:52:37;20.70;62.80
47310;DHT22;33046;52.270;6.832;2022-07-29T00:54:44;20.80;62.70
47310;DHT22;33046;52.270;6.832;2022-07-29T00:56:51;20.70;62.70
47310;DHT22;33046;52.270;6.832;2022-07-29T00:59:00;20.70;62.70
47310;DHT22;33046;52.270;6.832;2022-07-29T01:01:06;20.70;62.70
47310;DHT22;33046;52.270;6.832;2022-07-29T01:03:13;20.70;62.70
47310;DHT22;33046;52.270;6.832;2022-07-29T01:05:24;20.60;62.70
47310;DHT22;33046;52.270;6.832;2022-07-29T01:07:32;20.60;62.80
47310;DHT22;33046;52.270;6.832;2022-07-29T01:09:40;20.60;62.90
47310;DHT22;33046;52.270;6.832;2022-07-29T01:11:49;20.60;63.10
47310;DHT22;33046;52.270;6.832;2022-07-29T01:13:56;20.60;63.10
47310;DHT22;33046;52.270;6.832;2022-07-29T01:16:13;20.60;63.30
47310;DHT22;33046;52.270;6.832;2022-07-29T01:18:24;20.60;63.20
47310;DHT22;33046;52.270;6.832;2022-07-29T01:20:51;20.50;63.80
47310;DHT22;33046;52.270;6.832;2022-07-29T01:23:28;20.50;63.30
47310;DHT22;33046;52.270;6.832;2022-07-29T01:31:04;20.40;63.20
47310;DHT22;33046;52.270;6.832;2022-07-29T01:33:15;20.50;63.20
47310;DHT22;33046;52.270;6.832;2022-07-29T01:35:26;20.50;63.30
47310;DHT22;33046;52.270;6.832;2022-07-29T01:37:39;20.40;63.80
47310;DHT22;33046;52.270;6.832;2022-07-29T01:39:49;20.40;63.60
47310;DHT22;33046;52.270;6.832;2022-07-29T01:41:59;20.40;63.40
47310;DHT22;33046;52.270;6.832;2022-07-29T01:44:12;20.40;63.50
47310;DHT22;33046;52.270;6.832;2022-07-29T01:46:24;20.30;63.60
47310;DHT22;33046;52.270;6.832;2022-07-29T01:48:38;20.30;63.60
47310;DHT22;33046;52.270;6.832;2022-07-29T01:50:48;20.30;64.10
47310;DHT22;33046;52.270;6.832;2022-07-29T01:52:57;20.30;64.30
47310;DHT22;33046;52.270;6.832;2022-07-29T01:55:09;20.30;64.50
47310;DHT22;33046;52.270;6.832;2022-07-29T01:57:18;20.30;64.30
47310;DHT22;33046;52.270;6.832;2022-07-29T01:59:26;20.30;64.50
47310;DHT22;33046;52.270;6.832;2022-07-29T02:01:35;20.20;64.60
47310;DHT22;33046;52.270;6.832;2022-07-29T02:03:44;20.20;64.50
47310;DHT22;33046;52.270;6.832;2022-07-29T02:05:52;20.20;64.70
47310;DHT22;33046;52.270;6.832;2022-07-29T02:08:00;20.20;64.60
47310;DHT22;33046;52.270;6.832;2022-07-29T02:10:09;20.20;64.80
47310;DHT22;33046;52.270;6.832;2022-07-29T02:12:18;20.20;64.80
47310;DHT22;33046;52.270;6.832;2022-07-29T02:14:30;20.10;65.10
47310;DHT22;33046;52.270;6.832;2022-07-29T02:16:41;20.10;65.10
47310;DHT22;33046;52.270;6.832;2022-07-29T02:18:50;20.10;65.30
47310;DHT22;33046;52.270;6.832;2022-07-29T02:20:59;20.10;65.20
47310;DHT22;33046;52.270;6.832;2022-07-29T02:23:10;20.10;65.30
47310;DHT22;33046;52.270;6.832;2022-07-29T02:25:18;20.10;65.30
47310;DHT22;33046;52.270;6.832;2022-07-29T02:27:28;20.00;65.30
47310;DHT22;33046;52.270;6.832;2022-07-29T02:29:37;20.00;65.40
47310;DHT22;33046;52.270;6.832;2022-07-29T02:31:49;20.00;65.50
47310;DHT22;33046;52.270;6.832;2022-07-29T02:33:57;20.00;65.60
47310;DHT22;33046;52.270;6.832;2022-07-29T02:36:05;20.00;65.60
47310;DHT22;33046;52.270;6.832;2022-07-29T02:38:14;20.00;65.90
47310;DHT22;33046;52.270;6.832;2022-07-29T02:40:21;20.00;65.80
47310;DHT22;33046;52.270;6.832;2022-07-29T02:42:28;19.90;65.60
47310;DHT22;33046;52.270;6.832;2022-07-29T02:44:35;19.90;65.60
47310;DHT22;33046;52.270;6.832;2022-07-29T02:46:47;19.90;65.80
47310;DHT22;33046;52.270;6.832;2022-07-29T02:48:59;19.90;65.90
47310;DHT22;33046;52.270;6.832;2022-07-29T02:51:14;19.80;66.00
47310;DHT22;33046;52.270;6.832;2022-07-29T02:53:25;19.80;66.10
47310;DHT22;33046;52.270;6.832;2022-07-29T02:55:37;19.80;66.10
47310;DHT22;33046;52.270;6.832;2022-07-29T02:57:48;19.80;66.20
47310;DHT22;33046;52.270;6.832;2022-07-29T02:59:58;19.80;66.10
47310;DHT22;33046;52.270;6.832;2022-07-29T03:02:07;19.80;66.20
47310;DHT22;33046;52.270;6.832;2022-07-29T03:04:15;19.80;66.40
47310;DHT22;33046;52.270;6.832;2022-07-29T03:06:25;19.70;66.40
47310;DHT22;33046;52.270;6.832;2022-07-29T03:08:34;19.70;66.80
47310;DHT22;33046;52.270;6.832;2022-07-29T03:10:44;19.70;66.30
47310;DHT22;33046;52.270;6.832;2022-07-29T03:12:51;19.70;66.70
47310;DHT22;33046;52.270;6.832;2022-07-29T03:14:59;19.60;66.60
47310;DHT22;33046;52.270;6.832;2022-07-29T03:17:09;19.60;66.70
47310;DHT22;33046;52.270;6.832;2022-07-29T03:19:16;19.60;66.80
47310;DHT22;33046;52.270;6.832;2022-07-29T03:21:23;19.60;67.00
47310;DHT22;33046;52.270;6.832;2022-07-29T03:23:30;19.60;67.10
47310;DHT22;33046;52.270;6.832;2022-07-29T03:25:37;19.50;67.20
47310;DHT22;33046;52.270;6.832;2022-07-29T03:27:45;19.50;67.20
47310;DHT22;33046;52.270;6.832;2022-07-29T03:29:52;19.50;67.30
47310;DHT22;33046;52.270;6.832;2022-07-29T03:32:00;19.50;67.20
47310;DHT22;33046;52.270;6.832;2022-07-29T03:34:08;19.50;67.50
47310;DHT22;33046;52.270;6.832;2022-07-29T03:36:15;19.50;67.60
47310;DHT22;33046;52.270;6.832;2022-07-29T03:38:25;19.50;67.50
47310;DHT22;33046;52.270;6.832;2022-07-29T03:40:38;19.50;67.60
47310;DHT22;33046;52.270;6.832;2022-07-29T03:42:47;19.40;67.70
47310;DHT22;33046;52.270;6.832;2022-07-29T03:44:56;19.40;67.90
47310;DHT22;33046;52.270;6.832;2022-07-29T03:47:04;19.40;67.80
47310;DHT22;33046;52.270;6.832;2022-07-29T03:49:15;19.40;67.90
47310;DHT22;33046;52.270;6.832;2022-07-29T03:51:23;19.40;67.70
47310;DHT22;33046;52.270;6.832;2022-07-29T03:53:30;19.40;67.90
47310;DHT22;33046;52.270;6.832;2022-07-29T03:55:41;19.30;67.80
47310;DHT22;33046;52.270;6.832;2022-07-29T03:57:48;19.30;67.80
47310;DHT22;33046;52.270;6.832;2022-07-29T03:59:56;19.30;67.80
47310;DHT22;33046;52.270;6.832;2022-07-29T04:02:05;19.30;68.50
47310;DHT22;33046;52.270;6.832;2022-07-29T04:04:16;19.30;68.10
47310;DHT22;33046;52.270;6.832;2022-07-29T04:06:23;19.30;68.00
47310;DHT22;33046;52.270;6.832;2022-07-29T04:08:30;19.30;67.90
47310;DHT22;33046;52.270;6.832;2022-07-29T04:10:37;19.30;68.30
47310;DHT22;33046;52.270;6.832;2022-07-29T04:12:44;19.30;68.50
47310;DHT22;33046;52.270;6.832;2022-07-29T04:14:51;19.30;68.30
47310;DHT22;33046;52.270;6.832;2022-07-29T04:16:58;19.30;68.50
47310;DHT22;33046;52.270;6.832;2022-07-29T04:19:05;19.30;68.50
47310;DHT22;33046;52.270;6.832;2022-07-29T04:21:13;19.30;68.20
47310;DHT22;33046;52.270;6.832;2022-07-29T04:23:20;19.30;68.20
47310;DHT22;33046;52.270;6.832;2022-07-29T04:25:27;19.30;68.20
47310;DHT22;33046;52.270;6.832;2022-07-29T04:27:33;19.30;68.00
47310;DHT22;33046;52.270;6.832;2022-07-29T04:29:40;19.30;67.80
47310;DHT22;33046;52.270;6.832;2022-07-29T04:31:47;19.30;67.90
47310;DHT22;33046;52.270;6.832;2022-07-29T04:33:54;19.30;68.10
47310;DHT22;33046;52.270;6.832;2022-07-29T04:36:00;19.30;68.50
47310;DHT22;33046;52.270;6.832;2022-07-29T04:38:09;19.30;68.80
47310;DHT22;33046;52.270;6.832;2022-07-29T04:40:15;19.30;68.70
47310;DHT22;33046;52.270;6.832;2022-07-29T04:42:22;19.30;68.60
47310;DHT22;33046;52.270;6.832;2022-07-29T04:44:29;19.30;69.00
47310;DHT22;33046;52.270;6.832;2022-07-29T04:46:36;19.30;69.10
47310;DHT22;33046;52.270;6.832;2022-07-29T04:48:45;19.30;69.20
47310;DHT22;33046;52.270;6.832;2022-07-29T04:50:52;19.30;68.70
47310;DHT22;33046;52.270;6.832;2022-07-29T04:52:58;19.30;68.50
47310;DHT22;33046;52.270;6.832;2022-07-29T04:55:07;19.30;68.50
47310;DHT22;33046;52.270;6.832;2022-07-29T04:57:14;19.30;69.20
47310;DHT22;33046;52.270;6.832;2022-07-29T04:59:21;19.30;69.40
47310;DHT22;33046;52.270;6.832;2022-07-29T05:01:28;19.30;69.40
47310;DHT22;33046;52.270;6.832;2022-07-29T05:03:35;19.30;69.40
47310;DHT22;33046;52.270;6.832;2022-07-29T05:05:41;19.30;69.40
47310;DHT22;33046;52.270;6.832;2022-07-29T05:07:48;19.30;69.60
47310;DHT22;33046;52.270;6.832;2022-07-29T05:09:55;19.30;69.50
47310;DHT22;33046;52.270;6.832;2022-07-29T05:12:03;19.30;69.30
47310;DHT22;33046;52.270;6.832;2022-07-29T05:14:10;19.30;68.90
47310;DHT22;33046;52.270;6.832;2022-07-29T05:16:17;19.30;69.10
47310;DHT22;33046;52.270;6.832;2022-07-29T05:18:24;19.30;69.30
47310;DHT22;33046;52.270;6.832;2022-07-29T05:20:31;19.30;69.50
47310;DHT22;33046;52.270;6.832;2022-07-29T05:22:38;19.30;69.30
47310;DHT22;33046;52.270;6.832;2022-07-29T05:24:44;19.40;69.30
47310;DHT22;33046;52.270;6.832;2022-07-29T05:26:52;19.40;71.60
47310;DHT22;33046;52.270;6.832;2022-07-29T05:29:00;19.40;72.20
47310;DHT22;33046;52.270;6.832;2022-07-29T05:31:07;19.30;72.60
47310;DHT22;33046;52.270;6.832;2022-07-29T05:33:13;19.30;71.80
47310;DHT22;33046;52.270;6.832;2022-07-29T05:35:20;19.30;71.50
47310;DHT22;33046;52.270;6.832;2022-07-29T05:37:27;19.30;71.20
47310;DHT22;33046;52.270;6.832;2022-07-29T05:39:34;19.30;71.10
47310;DHT22;33046;52.270;6.832;2022-07-29T05:41:41;19.30;71.20
47310;DHT22;33046;52.270;6.832;2022-07-29T05:43:48;19.30;71.50
47310;DHT22;33046;52.270;6.832;2022-07-29T05:45:56;19.30;71.20
47310;DHT22;33046;52.270;6.832;2022-07-29T05:48:03;19.30;71.30
47310;DHT22;33046;52.270;6.832;2022-07-29T05:50:10;19.30;71.00
47310;DHT22;33046;52.270;6.832;2022-07-29T05:52:17;19.30;71.20
47310;DHT22;33046;52.270;6.832;2022-07-29T05:54:24;19.30;71.50
47310;DHT22;33046;52.270;6.832;2022-07-29T05:56:31;19.30;70.20
47310;DHT22;33046;52.270;6.832;2022-07-29T05:58:37;19.30;70.10
47310;DHT22;33046;52.270;6.832;2022-07-29T06:00:45;19.30;70.00
47310;DHT22;33046;52.270;6.832;2022-07-29T06:02:53;19.30;70.00
47310;DHT22;33046;52.270;6.832;2022-07-29T06:05:00;19.40;70.20
47310;DHT22;33046;52.270;6.832;2022-07-29T06:07:07;19.30;70.00
47310;DHT22;33046;52.270;6.832;2022-07-29T06:09:14;19.40;69.70
47310;DHT22;33046;52.270;6.832;2022-07-29T06:11:21;19.40;70.00
47310;DHT22;33046;52.270;6.832;2022-07-29T06:13:27;19.40;69.80
47310;DHT22;33046;52.270;6.832;2022-07-29T06:15:34;19.40;70.20
47310;DHT22;33046;52.270;6.832;2022-07-29T06:17:41;19.40;70.70
47310;DHT22;33046;52.270;6.832;2022-07-29T06:19:49;19.40;70.30
47310;DHT22;33046;52.270;6.832;2022-07-29T06:21:56;19.40;70.00
47310;DHT22;33046;52.270;6.832;2022-07-29T06:24:03;19.40;70.10
47310;DHT22;33046;52.270;6.832;2022-07-29T06:26:10;19.40;70.00
47310;DHT22;33046;52.270;6.832;2022-07-29T06:28:17;19.40;70.00
47310;DHT22;33046;52.270;6.832;2022-07-29T06:30:24;19.40;70.20
47310;DHT22;33046;52.270;6.832;2022-07-29T06:32:31;19.40;70.20
47310;DHT22;33046;52.270;6.832;2022-07-29T06:34:38;19.40;70.00
47310;DHT22;33046;52.270;6.832;2022-07-29T06:36:46;19.40;70.00
47310;DHT22;33046;52.270;6.832;2022-07-29T06:38:53;19.40;70.30
47310;DHT22;33046;52.270;6.832;2022-07-29T06:41:00;19.40;70.60
47310;DHT22;33046;52.270;6.832;2022-07-29T06:43:07;19.50;70.70
47310;DHT22;33046;52.270;6.832;2022-07-29T06:45:14;19.40;71.00
47310;DHT22;33046;52.270;6.832;2022-07-29T06:47:20;19.40;71.20
47310;DHT22;33046;52.270;6.832;2022-07-29T06:49:27;19.50;71.20
47310;DHT22;33046;52.270;6.832;2022-07-29T06:51:34;19.40;71.10
47310;DHT22;33046;52.270;6.832;2022-07-29T06:53:42;19.50;71.80
47310;DHT22;33046;52.270;6.832;2022-07-29T06:55:49;19.50;72.10
47310;DHT22;33046;52.270;6.832;2022-07-29T06:57:56;19.50;72.30
47310;DHT22;33046;52.270;6.832;2022-07-29T07:00:03;19.50;72.60
47310;DHT22;33046;52.270;6.832;2022-07-29T07:02:10;19.50;73.10
47310;DHT22;33046;52.270;6.832;2022-07-29T07:04:17;19.50;73.30
47310;DHT22;33046;52.270;6.832;2022-07-29T07:06:24;19.50;73.40
47310;DHT22;33046;52.270;6.832;2022-07-29T07:08:30;19.40;74.10
47310;DHT22;33046;52.270;6.832;2022-07-29T07:10:39;19.40;73.70
47310;DHT22;33046;52.270;6.832;2022-07-29T07:12:46;19.40;74.00
47310;DHT22;33046;52.270;6.832;2022-07-29T07:14:53;19.40;74.10
47310;DHT22;33046;52.270;6.832;2022-07-29T07:16:59;19.40;73.70
47310;DHT22;33046;52.270;6.832;2022-07-29T07:19:06;19.50;74.10
47310;DHT22;33046;52.270;6.832;2022-07-29T07:21:13;19.40;74.50
47310;DHT22;33046;52.270;6.832;2022-07-29T07:23:20;19.40;74.90
47310;DHT22;33046;52.270;6.832;2022-07-29T07:25:27;19.40;75.40
47310;DHT22;33046;52.270;6.832;2022-07-29T07:27:35;19.40;75.90
47310;DHT22;33046;52.270;6.832;2022-07-29T07:29:42;19.50;76.10
47310;DHT22;33046;52.270;6.832;2022-07-29T07:31:48;19.50;76.40
47310;DHT22;33046;52.270;6.832;2022-07-29T07:33:55;19.40;75.50
47310;DHT22;33046;52.270;6.832;2022-07-29T07:36:02;19.40;76.50
47310;DHT22;33046;52.270;6.832;2022-07-29T07:38:09;19.50;77.40
47310;DHT22;33046;52.270;6.832;2022-07-29T07:40:16;19.50;76.60
47310;DHT22;33046;52.270;6.832;2022-07-29T07:42:23;19.50;77.10
47310;DHT22;33046;52.270;6.832;2022-07-29T07:44:31;19.50;77.60
47310;DHT22;33046;52.270;6.832;2022-07-29T07:46:40;19.60;78.50
47310;DHT22;33046;52.270;6.832;2022-07-29T07:48:46;19.60;78.40
47310;DHT22;33046;52.270;6.832;2022-07-29T07:50:53;19.60;78.20
47310;DHT22;33046;52.270;6.832;2022-07-29T07:53:00;19.60;77.40
47310;DHT22;33046;52.270;6.832;2022-07-29T07:55:08;19.60;77.70
47310;DHT22;33046;52.270;6.832;2022-07-29T07:57:15;19.70;78.90
47310;DHT22;33046;52.270;6.832;2022-07-29T07:59:22;19.70;79.50
47310;DHT22;33046;52.270;6.832;2022-07-29T08:01:30;19.70;80.00
47310;DHT22;33046;52.270;6.832;2022-07-29T08:03:37;19.70;79.30
47310;DHT22;33046;52.270;6.832;2022-07-29T08:05:44;19.70;79.30
47310;DHT22;33046;52.270;6.832;2022-07-29T08:07:51;19.70;79.30
47310;DHT22;33046;52.270;6.832;2022-07-29T08:09:57;19.70;80.20
47310;DHT22;33046;52.270;6.832;2022-07-29T08:12:04;19.70;79.30
47310;DHT22;33046;52.270;6.832;2022-07-29T08:14:11;19.80;79.30
47310;DHT22;33046;52.270;6.832;2022-07-29T08:16:18;19.70;79.80
47310;DHT22;33046;52.270;6.832;2022-07-29T08:18:27;19.70;79.90
47310;DHT22;33046;52.270;6.832;2022-07-29T08:20:35;19.80;80.40
47310;DHT22;33046;52.270;6.832;2022-07-29T08:22:42;19.80;80.70
47310;DHT22;33046;52.270;6.832;2022-07-29T08:24:49;19.80;79.30
47310;DHT22;33046;52.270;6.832;2022-07-29T08:26:56;19.80;80.40
47310;DHT22;33046;52.270;6.832;2022-07-29T08:29:03;19.80;81.20
47310;DHT22;33046;52.270;6.832;2022-07-29T08:31:10;19.70;81.10
47310;DHT22;33046;52.270;6.832;2022-07-29T08:33:16;19.70;82.00
47310;DHT22;33046;52.270;6.832;2022-07-29T08:35:25;19.70;82.20
47310;DHT22;33046;52.270;6.832;2022-07-29T08:37:32;19.70;82.20
47310;DHT22;33046;52.270;6.832;2022-07-29T08:39:39;19.70;82.00
47310;DHT22;33046;52.270;6.832;2022-07-29T08:41:45;19.70;82.40
47310;DHT22;33046;52.270;6.832;2022-07-29T08:43:54;19.70;82.30
47310;DHT22;33046;52.270;6.832;2022-07-29T08:46:01;19.70;82.60
47310;DHT22;33046;52.270;6.832;2022-07-29T08:48:07;19.70;83.00
47310;DHT22;33046;52.270;6.832;2022-07-29T08:50:14;19.70;82.60
47310;DHT22;33046;52.270;6.832;2022-07-29T08:52:25;19.70;82.50
47310;DHT22;33046;52.270;6.832;2022-07-29T08:54:32;19.70;82.40
47310;DHT22;33046;52.270;6.832;2022-07-29T08:56:39;19.70;83.10
47310;DHT22;33046;52.270;6.832;2022-07-29T08:58:46;19.70;83.10
47310;DHT22;33046;52.270;6.832;2022-07-29T09:00:55;19.70;82.70
47310;DHT22;33046;52.270;6.832;2022-07-29T09:03:04;19.70;82.90
47310;DHT22;33046;52.270;6.832;2022-07-29T09:05:11;19.70;83.30
47310;DHT22;33046;52.270;6.832;2022-07-29T09:07:19;19.70;83.80
47310;DHT22;33046;52.270;6.832;2022-07-29T09:09:27;19.70;83.20
47310;DHT22;33046;52.270;6.832;2022-07-29T09:11:34;19.70;82.20
47310;DHT22;33046;52.270;6.832;2022-07-29T09:13:41;19.70;82.20
47310;DHT22;33046;52.270;6.832;2022-07-29T09:15:48;19.70;82.30
47310;DHT22;33046;52.270;6.832;2022-07-29T09:17:54;19.70;82.90
47310;DHT22;33046;52.270;6.832;2022-07-29T09:20:08;19.70;83.70
47310;DHT22;33046;52.270;6.832;2022-07-29T09:22:28;19.70;84.10
47310;DHT22;33046;52.270;6.832;2022-07-29T09:24:44;19.70;84.00
47310;DHT22;33046;52.270;6.832;2022-07-29T09:26:51;19.70;83.10
47310;DHT22;33046;52.270;6.832;2022-07-29T09:28:58;19.70;83.80
47310;DHT22;33046;52.270;6.832;2022-07-29T09:31:05;19.70;85.20
47310;DHT22;33046;52.270;6.832;2022-07-29T09:33:12;19.70;85.20
47310;DHT22;33046;52.270;6.832;2022-07-29T09:35:20;19.70;85.60
47310;DHT22;33046;52.270;6.832;2022-07-29T09:37:28;19.60;84.70
47310;DHT22;33046;52.270;6.832;2022-07-29T09:39:36;19.70;85.20
47310;DHT22;33046;52.270;6.832;2022-07-29T09:41:49;19.70;86.50
47310;DHT22;33046;52.270;6.832;2022-07-29T09:43:57;19.70;86.90
47310;DHT22;33046;52.270;6.832;2022-07-29T09:46:11;19.70;86.70
47310;DHT22;33046;52.270;6.832;2022-07-29T09:48:19;19.70;87.20
47310;DHT22;33046;52.270;6.832;2022-07-29T09:50:37;19.70;87.50
47310;DHT22;33046;52.270;6.832;2022-07-29T09:52:46;19.70;87.80
47310;DHT22;33046;52.270;6.832;2022-07-29T09:54:53;19.80;87.50
47310;DHT22;33046;52.270;6.832;2022-07-29T09:57:23;19.80;87.50
47310;DHT22;33046;52.270;6.832;2022-07-29T09:59:33;19.80;86.30
47310;DHT22;33046;52.270;6.832;2022-07-29T10:01:40;19.80;85.40
47310;DHT22;33046;52.270;6.832;2022-07-29T10:03:53;19.80;85.90
47310;DHT22;33046;52.270;6.832;2022-07-29T10:06:07;19.80;85.90
47310;DHT22;33046;52.270;6.832;2022-07-29T10:08:24;19.80;87.00
47310;DHT22;33046;52.270;6.832;2022-07-29T10:10:33;19.90;87.10
47310;DHT22;33046;52.270;6.832;2022-07-29T10:12:51;19.80;85.50
47310;DHT22;33046;52.270;6.832;2022-07-29T10:14:58;19.90;86.00
47310;DHT22;33046;52.270;6.832;2022-07-29T10:17:09;19.90;86.10
47310;DHT22;33046;52.270;6.832;2022-07-29T10:19:17;19.90;86.60
47310;DHT22;33046;52.270;6.832;2022-07-29T10:21:23;19.90;86.70
47310;DHT22;33046;52.270;6.832;2022-07-29T10:23:31;19.90;86.70
47310;DHT22;33046;52.270;6.832;2022-07-29T10:25:38;19.90;86.40
47310;DHT22;33046;52.270;6.832;2022-07-29T10:27:46;19.90;86.40
47310;DHT22;33046;52.270;6.832;2022-07-29T10:29:55;19.90;87.50
47310;DHT22;33046;52.270;6.832;2022-07-29T10:32:24;19.90;88.30
47310;DHT22;33046;52.270;6.832;2022-07-29T10:34:44;19.90;89.40
47310;DHT22;33046;52.270;6.832;2022-07-29T10:37:01;19.90;89.30
47310;DHT22;33046;52.270;6.832;2022-07-29T10:39:19;19.90;89.80
47310;DHT22;33046;52.270;6.832;2022-07-29T10:44:12;20.00;90.00
47310;DHT22;33046;52.270;6.832;2022-07-29T10:46:23;20.00;89.70
47310;DHT22;33046;52.270;6.832;2022-07-29T10:48:30;20.00;88.80
47310;DHT22;33046;52.270;6.832;2022-07-29T10:50:54;20.00;89.10
47310;DHT22;33046;52.270;6.832;2022-07-29T10:53:01;20.00;89.20
47310;DHT22;33046;52.270;6.832;2022-07-29T10:55:08;20.00;89.50
47310;DHT22;33046;52.270;6.832;2022-07-29T10:57:23;20.10;89.70
47310;DHT22;33046;52.270;6.832;2022-07-29T10:59:30;20.00;89.00
47310;DHT22;33046;52.270;6.832;2022-07-29T11:01:38;20.10;89.40
47310;DHT22;33046;52.270;6.832;2022-07-29T11:03:46;20.10;90.10
47310;DHT22;33046;52.270;6.832;2022-07-29T11:05:55;20.10;90.00
47310;DHT22;33046;52.270;6.832;2022-07-29T11:08:22;20.10;90.50
47310;DHT22;33046;52.270;6.832;2022-07-29T11:10:29;20.00;90.40
47310;DHT22;33046;52.270;6.832;2022-07-29T11:12:46;20.10;90.30
47310;DHT22;33046;52.270;6.832;2022-07-29T11:14:57;20.10;90.00
47310;DHT22;33046;52.270;6.832;2022-07-29T11:17:06;20.10;90.30
47310;DHT22;33046;52.270;6.832;2022-07-29T11:22:45;20.20;90.20
47310;DHT22;33046;52.270;6.832;2022-07-29T11:25:12;20.30;90.20
47310;DHT22;33046;52.270;6.832;2022-07-29T11:27:19;20.30;90.40
47310;DHT22;33046;52.270;6.832;2022-07-29T11:29:27;20.40;90.10
47310;DHT22;33046;52.270;6.832;2022-07-29T11:31:39;20.50;90.30
47310;DHT22;33046;52.270;6.832;2022-07-29T11:33:47;20.50;90.30
47310;DHT22;33046;52.270;6.832;2022-07-29T11:36:11;20.60;90.30
47310;DHT22;33046;52.270;6.832;2022-07-29T11:38:24;20.60;90.00
47310;DHT22;33046;52.270;6.832;2022-07-29T11:40:31;20.70;89.80
47310;DHT22;33046;52.270;6.832;2022-07-29T11:42:43;20.70;90.00
47310;DHT22;33046;52.270;6.832;2022-07-29T11:44:54;20.80;89.80
47310;DHT22;33046;52.270;6.832;2022-07-29T11:47:01;20.80;89.90
47310;DHT22;33046;52.270;6.832;2022-07-29T11:49:10;20.90;89.40
47310;DHT22;33046;52.270;6.832;2022-07-29T11:51:17;20.90;89.40
47310;DHT22;33046;52.270;6.832;2022-07-29T11:53:23;20.90;90.10
47310;DHT22;33046;52.270;6.832;2022-07-29T11:55:31;21.00;88.20
47310;DHT22;33046;52.270;6.832;2022-07-29T11:57:46;21.10;88.50
47310;DHT22;33046;52.270;6.832;2022-07-29T11:59:53;21.10;88.90
47310;DHT22;33046;52.270;6.832;2022-07-29T12:02:02;21.20;89.40
47310;DHT22;33046;52.270;6.832;2022-07-29T12:04:25;21.20;87.80
47310;DHT22;33046;52.270;6.832;2022-07-29T12:06:34;21.30;86.90
47310;DHT22;33046;52.270;6.832;2022-07-29T12:08:42;21.30;86.30
47310;DHT22;33046;52.270;6.832;2022-07-29T12:10:50;21.40;86.00
47310;DHT22;33046;52.270;6.832;2022-07-29T12:12:57;21.40;85.10
47310;DHT22;33046;52.270;6.832;2022-07-29T12:15:14;21.40;86.00
47310;DHT22;33046;52.270;6.832;2022-07-29T12:17:25;21.50;86.30
47310;DHT22;33046;52.270;6.832;2022-07-29T12:19:42;21.50;84.40
47310;DHT22;33046;52.270;6.832;2022-07-29T12:21:51;21.60;82.50
47310;DHT22;33046;52.270;6.832;2022-07-29T12:23:58;21.60;82.90
47310;DHT22;33046;52.270;6.832;2022-07-29T12:26:07;21.70;83.30
47310;DHT22;33046;52.270;6.832;2022-07-29T12:28:14;21.80;82.30
47310;DHT22;33046;52.270;6.832;2022-07-29T12:30:21;21.80;82.80
47310;DHT22;33046;52.270;6.832;2022-07-29T12:32:32;21.90;81.20
47310;DHT22;33046;52.270;6.832;2022-07-29T12:34:40;22.00;81.40
47310;DHT22;33046;52.270;6.832;2022-07-29T12:36:48;22.10;81.30
47310;DHT22;33046;52.270;6.832;2022-07-29T12:38:55;22.10;80.00
47310;DHT22;33046;52.270;6.832;2022-07-29T12:41:02;22.20;80.20
47310;DHT22;33046;52.270;6.832;2022-07-29T12:43:12;22.30;81.20
47310;DHT22;33046;52.270;6.832;2022-07-29T12:45:28;22.40;81.00
47310;DHT22;33046;52.270;6.832;2022-07-29T12:47:53;22.60;79.90
47310;DHT22;33046;52.270;6.832;2022-07-29T12:50:11;22.70;79.60
47310;DHT22;33046;52.270;6.832;2022-07-29T12:52:26;22.90;80.20
47310;DHT22;33046;52.270;6.832;2022-07-29T12:54:33;23.00;77.50
47310;DHT22;33046;52.270;6.832;2022-07-29T12:56:41;23.00;76.40
47310;DHT22;33046;52.270;6.832;2022-07-29T12:58:49;23.10;75.40
47310;DHT22;33046;52.270;6.832;2022-07-29T13:01:01;23.10;77.10
47310;DHT22;33046;52.270;6.832;2022-07-29T13:03:08;23.20;76.80
47310;DHT22;33046;52.270;6.832;2022-07-29T13:05:17;23.30;77.30
47310;DHT22;33046;52.270;6.832;2022-07-29T13:07:24;23.30;76.10
47310;DHT22;33046;52.270;6.832;2022-07-29T13:09:39;23.30;73.20
47310;DHT22;33046;52.270;6.832;2022-07-29T13:11:48;23.40;72.90
47310;DHT22;33046;52.270;6.832;2022-07-29T13:13:55;23.40;72.60
47310;DHT22;33046;52.270;6.832;2022-07-29T13:16:06;23.40;72.70
47310;DHT22;33046;52.270;6.832;2022-07-29T13:18:29;23.50;72.70
47310;DHT22;33046;52.270;6.832;2022-07-29T13:20:37;23.40;71.50
47310;DHT22;33046;52.270;6.832;2022-07-29T13:22:47;23.60;71.30
47310;DHT22;33046;52.270;6.832;2022-07-29T13:24:56;23.60;71.20
47310;DHT22;33046;52.270;6.832;2022-07-29T13:27:03;23.60;70.70
47310;DHT22;33046;52.270;6.832;2022-07-29T13:29:10;23.60;70.50
47310;DHT22;33046;52.270;6.832;2022-07-29T13:31:17;23.60;71.40
47310;DHT22;33046;52.270;6.832;2022-07-29T13:33:24;23.70;69.80
47310;DHT22;33046;52.270;6.832;2022-07-29T13:35:31;23.70;70.10
47310;DHT22;33046;52.270;6.832;2022-07-29T13:37:39;23.70;69.30
47310;DHT22;33046;52.270;6.832;2022-07-29T13:39:46;23.70;69.30
47310;DHT22;33046;52.270;6.832;2022-07-29T13:41:53;23.70;69.70
47310;DHT22;33046;52.270;6.832;2022-07-29T13:43:59;23.70;69.60
47310;DHT22;33046;52.270;6.832;2022-07-29T13:46:06;23.80;69.70